sensor_id;sensor_type;location;lat;lon;timestamp;P1;durP1;ratioP1;P2;durP2;ratioP2
20861;SDS011;10591;52.532;13.348;2022-09-09T00:01:56;9.48;;;8.35;;
20861;SDS011;10591;52.532;13.348;2022-09-09T00:04:34;9.65;;;8.33;;
20861;SDS011;10591;52.532;13.348;2022-09-09T00:07:18;9.10;;;8.18;;
20861;SDS011;10591;52.532;13.348;2022-09-09T00:12:50;9.38;;;8.40;;
20861;SDS011;10591;52.532;13.348;2022-09-09T00:16:26;9.33;;;8.50;;
20861;SDS011;10591;52.532;13.348;2022-09-09T00:18:22;8.80;;;8.00;;
20861;SDS011;10591;52.532;13.348;2022-09-09T00:20:54;8.65;;;7.85;;
20861;SDS011;10591;52.532;13.348;2022-09-09T00:23:38;8.75;;;7.83;;
20861;SDS011;10591;52.532;13.348;2022-09-09T00:26:19;8.90;;;7.92;;
20861;SDS011;10591;52.532;13.348;2022-09-09T00:29:00;8.78;;;7.87;;
20861;SDS011;10591;52.532;13.348;2022-09-09T00:31:27;8.85;;;7.95;;
20861;SDS011;10591;52.532;13.348;2022-09-09T00:34:03;8.98;;;8.05;;
20861;SDS011;10591;52.532;13.348;2022-09-09T00:36:35;9.08;;;7.97;;
20861;SDS011;10591;52.532;13.348;2022-09-09T00:39:09;9.43;;;8.43;;
20861;SDS011;10591;52.532;13.348;2022-09-09T00:41:51;9.33;;;8.20;;
20861;SDS011;10591;52.532;13.348;2022-09-09T00:44:33;9.83;;;8.20;;
20861;SDS011;10591;52.532;13.348;2022-09-09T00:52:45;10.05;;;9.05;;
20861;SDS011;10591;52.532;13.348;2022-09-09T00:58:10;9.30;;;8.20;;
20861;SDS011;10591;52.532;13.348;2022-09-09T01:00:45;9.88;;;8.83;;
20861;SDS011;10591;52.532;13.348;2022-09-09T01:09:10;9.13;;;8.28;;
20861;SDS011;10591;52.532;13.348;2022-09-09T01:11:59;9.30;;;8.40;;
20861;SDS011;10591;52.532;13.348;2022-09-09T01:20:14;9.60;;;8.65;;
20861;SDS011;10591;52.532;13.348;2022-09-09T01:23:10;9.15;;;8.20;;
20861;SDS011;10591;52.532;13.348;2022-09-09T01:28:53;9.98;;;8.70;;
20861;SDS011;10591;52.532;13.348;2022-09-09T01:31:28;10.03;;;9.13;;
20861;SDS011;10591;52.532;13.348;2022-09-09T01:34:13;10.00;;;9.00;;
20861;SDS011;10591;52.532;13.348;2022-09-09T01:36:46;9.75;;;8.70;;
20861;SDS011;10591;52.532;13.348;2022-09-09T01:39:21;10.35;;;8.98;;
20861;SDS011;10591;52.532;13.348;2022-09-09T01:41:52;9.65;;;8.58;;
20861;SDS011;10591;52.532;13.348;2022-09-09T01:44:24;9.58;;;8.58;;
20861;SDS011;10591;52.532;13.348;2022-09-09T01:46:56;10.65;;;8.78;;
20861;SDS011;10591;52.532;13.348;2022-09-09T01:49:27;10.15;;;9.00;;
20861;SDS011;10591;52.532;13.348;2022-09-09T01:51:57;9.20;;;8.30;;
20861;SDS011;10591;52.532;13.348;2022-09-09T01:54:29;11.28;;;8.60;;
20861;SDS011;10591;52.532;13.348;2022-09-09T01:57:06;10.70;;;8.98;;
20861;SDS011;10591;52.532;13.348;2022-09-09T02:02:35;10.35;;;8.98;;
20861;SDS011;10591;52.532;13.348;2022-09-09T02:05:36;9.78;;;8.20;;
20861;SDS011;10591;52.532;13.348;2022-09-09T02:08:09;9.75;;;8.75;;
20861;SDS011;10591;52.532;13.348;2022-09-09T02:13:21;9.65;;;8.70;;
20861;SDS011;10591;52.532;13.348;2022-09-09T02:18:50;10.65;;;8.98;;
20861;SDS011;10591;52.532;13.348;2022-09-09T02:21:22;8.55;;;7.75;;
20861;SDS011;10591;52.532;13.348;2022-09-09T02:23:54;9.70;;;8.70;;
20861;SDS011;10591;52.532;13.348;2022-09-09T02:26:27;9.65;;;8.65;;
20861;SDS011;10591;52.532;13.348;2022-09-09T02:28:59;10.48;;;8.98;;
20861;SDS011;10591;52.532;13.348;2022-09-09T02:31:32;10.63;;;8.80;;
20861;SDS011;10591;52.532;13.348;2022-09-09T02:34:04;10.80;;;7.95;;
20861;SDS011;10591;52.532;13.348;2022-09-09T02:36:38;9.25;;;8.28;;
20861;SDS011;10591;52.532;13.348;2022-09-09T02:39:12;10.13;;;8.15;;
20861;SDS011;10591;52.532;13.348;2022-09-09T02:41:43;9.83;;;8.05;;
20861;SDS011;10591;52.532;13.348;2022-09-09T02:44:14;9.80;;;8.18;;
20861;SDS011;10591;52.532;13.348;2022-09-09T02:49:36;9.05;;;8.05;;
20861;SDS011;10591;52.532;13.348;2022-09-09T02:52:18;8.98;;;8.08;;
20861;SDS011;10591;52.532;13.348;2022-09-09T02:54:51;10.08;;;8.53;;
20861;SDS011;10591;52.532;13.348;2022-09-09T02:57:25;8.78;;;7.87;;
20861;SDS011;10591;52.532;13.348;2022-09-09T02:59:58;9.35;;;8.40;;
20861;SDS011;10591;52.532;13.348;2022-09-09T03:02:30;8.85;;;7.95;;
20861;SDS011;10591;52.532;13.348;2022-09-09T03:05:00;8.75;;;7.95;;
20861;SDS011;10591;52.532;13.348;2022-09-09T03:07:30;8.50;;;7.60;;
20861;SDS011;10591;52.532;13.348;2022-09-09T03:10:03;8.68;;;7.75;;
20861;SDS011;10591;52.532;13.348;2022-09-09T03:12:35;8.60;;;7.70;;
20861;SDS011;10591;52.532;13.348;2022-09-09T03:15:05;9.60;;;8.23;;
20861;SDS011;10591;52.532;13.348;2022-09-09T03:17:36;8.58;;;7.53;;
20861;SDS011;10591;52.532;13.348;2022-09-09T03:20:07;8.80;;;7.90;;
20861;SDS011;10591;52.532;13.348;2022-09-09T03:22:38;8.83;;;7.92;;
20861;SDS011;10591;52.532;13.348;2022-09-09T03:25:09;9.30;;;8.20;;
20861;SDS011;10591;52.532;13.348;2022-09-09T03:27:39;8.80;;;7.90;;
20861;SDS011;10591;52.532;13.348;2022-09-09T03:30:10;9.08;;;8.08;;
20861;SDS011;10591;52.532;13.348;2022-09-09T03:32:42;9.15;;;7.53;;
20861;SDS011;10591;52.532;13.348;2022-09-09T03:35:14;7.90;;;7.00;;
20861;SDS011;10591;52.532;13.348;2022-09-09T03:37:45;8.40;;;7.50;;
20861;SDS011;10591;52.532;13.348;2022-09-09T03:40:16;10.48;;;7.75;;
20861;SDS011;10591;52.532;13.348;2022-09-09T03:42:48;8.75;;;7.95;;
20861;SDS011;10591;52.532;13.348;2022-09-09T03:45:18;8.70;;;7.80;;
20861;SDS011;10591;52.532;13.348;2022-09-09T03:47:49;8.70;;;7.65;;
20861;SDS011;10591;52.532;13.348;2022-09-09T03:50:19;8.70;;;7.78;;
20861;SDS011;10591;52.532;13.348;2022-09-09T03:52:50;8.25;;;7.10;;
20861;SDS011;10591;52.532;13.348;2022-09-09T03:55:20;8.65;;;7.00;;
20861;SDS011;10591;52.532;13.348;2022-09-09T03:57:50;9.13;;;7.15;;
20861;SDS011;10591;52.532;13.348;2022-09-09T04:00:21;7.97;;;6.65;;
20861;SDS011;10591;52.532;13.348;2022-09-09T04:02:51;8.20;;;6.75;;
20861;SDS011;10591;52.532;13.348;2022-09-09T04:05:23;9.68;;;7.10;;
20861;SDS011;10591;52.532;13.348;2022-09-09T04:07:54;7.78;;;6.92;;
20861;SDS011;10591;52.532;13.348;2022-09-09T04:10:24;7.00;;;6.37;;
20861;SDS011;10591;52.532;13.348;2022-09-09T04:12:55;8.03;;;7.22;;
20861;SDS011;10591;52.532;13.348;2022-09-09T04:15:26;9.83;;;6.72;;
20861;SDS011;10591;52.532;13.348;2022-09-09T04:17:56;8.20;;;6.17;;
20861;SDS011;10591;52.532;13.348;2022-09-09T04:20:27;12.75;;;11.05;;
20861;SDS011;10591;52.532;13.348;2022-09-09T04:22:58;8.50;;;6.97;;
20861;SDS011;10591;52.532;13.348;2022-09-09T04:25:29;8.60;;;7.80;;
20861;SDS011;10591;52.532;13.348;2022-09-09T04:28:00;7.10;;;6.12;;
20861;SDS011;10591;52.532;13.348;2022-09-09T04:30:31;6.35;;;5.50;;
20861;SDS011;10591;52.532;13.348;2022-09-09T04:33:03;6.80;;;6.10;;
20861;SDS011;10591;52.532;13.348;2022-09-09T04:35:33;6.83;;;6.12;;
20861;SDS011;10591;52.532;13.348;2022-09-09T04:38:04;7.83;;;5.65;;
20861;SDS011;10591;52.532;13.348;2022-09-09T04:40:38;11.87;;;10.47;;
20861;SDS011;10591;52.532;13.348;2022-09-09T04:43:10;8.45;;;6.45;;
20861;SDS011;10591;52.532;13.348;2022-09-09T04:45:42;8.20;;;7.37;;
20861;SDS011;10591;52.532;13.348;2022-09-09T04:48:13;6.67;;;6.08;;
20861;SDS011;10591;52.532;13.348;2022-09-09T04:50:52;7.12;;;6.42;;
20861;SDS011;10591;52.532;13.348;2022-09-09T04:53:26;6.75;;;6.15;;
20861;SDS011;10591;52.532;13.348;2022-09-09T04:56:03;7.00;;;6.37;;
20861;SDS011;10591;52.532;13.348;2022-09-09T04:58:36;6.65;;;6.00;;
20861;SDS011;10591;52.532;13.348;2022-09-09T05:01:07;6.67;;;5.70;;
20861;SDS011;10591;52.532;13.348;2022-09-09T05:03:39;6.67;;;5.62;;
20861;SDS011;10591;52.532;13.348;2022-09-09T05:06:11;6.17;;;5.58;;
20861;SDS011;10591;52.532;13.348;2022-09-09T05:08:44;6.42;;;5.78;;
20861;SDS011;10591;52.532;13.348;2022-09-09T05:11:18;6.80;;;6.10;;
20861;SDS011;10591;52.532;13.348;2022-09-09T05:13:54;8.48;;;7.60;;
20861;SDS011;10591;52.532;13.348;2022-09-09T05:16:25;6.37;;;5.75;;
20861;SDS011;10591;52.532;13.348;2022-09-09T05:18:56;8.03;;;5.58;;
20861;SDS011;10591;52.532;13.348;2022-09-09T05:21:27;6.22;;;5.60;;
20861;SDS011;10591;52.532;13.348;2022-09-09T05:23:59;6.10;;;5.33;;
20861;SDS011;10591;52.532;13.348;2022-09-09T05:26:29;5.65;;;4.95;;
20861;SDS011;10591;52.532;13.348;2022-09-09T05:29:01;5.80;;;5.30;;
20861;SDS011;10591;52.532;13.348;2022-09-09T05:31:32;6.72;;;5.47;;
20861;SDS011;10591;52.532;13.348;2022-09-09T05:34:03;7.95;;;5.60;;
20861;SDS011;10591;52.532;13.348;2022-09-09T05:36:34;5.80;;;5.10;;
20861;SDS011;10591;52.532;13.348;2022-09-09T05:39:04;6.55;;;5.78;;
20861;SDS011;10591;52.532;13.348;2022-09-09T05:41:35;7.37;;;5.08;;
20861;SDS011;10591;52.532;13.348;2022-09-09T05:44:05;7.03;;;5.05;;
20861;SDS011;10591;52.532;13.348;2022-09-09T05:46:36;7.37;;;5.58;;
20861;SDS011;10591;52.532;13.348;2022-09-09T05:49:07;6.20;;;5.58;;
20861;SDS011;10591;52.532;13.348;2022-09-09T05:51:37;7.35;;;5.80;;
20861;SDS011;10591;52.532;13.348;2022-09-09T05:54:09;7.30;;;5.78;;
20861;SDS011;10591;52.532;13.348;2022-09-09T05:56:41;7.40;;;5.95;;
20861;SDS011;10591;52.532;13.348;2022-09-09T05:59:14;7.78;;;5.40;;
20861;SDS011;10591;52.532;13.348;2022-09-09T06:01:44;6.92;;;5.53;;
20861;SDS011;10591;52.532;13.348;2022-09-09T06:04:15;6.33;;;5.50;;
20861;SDS011;10591;52.532;13.348;2022-09-09T06:06:46;6.05;;;5.50;;
20861;SDS011;10591;52.532;13.348;2022-09-09T06:09:17;5.92;;;5.40;;
20861;SDS011;10591;52.532;13.348;2022-09-09T06:11:47;7.78;;;5.33;;
20861;SDS011;10591;52.532;13.348;2022-09-09T06:14:18;6.83;;;5.12;;
20861;SDS011;10591;52.532;13.348;2022-09-09T06:16:49;6.62;;;5.60;;
20861;SDS011;10591;52.532;13.348;2022-09-09T06:19:19;6.65;;;5.95;;
20861;SDS011;10591;52.532;13.348;2022-09-09T06:21:49;7.00;;;6.33;;
20861;SDS011;10591;52.532;13.348;2022-09-09T06:24:20;5.80;;;5.30;;
20861;SDS011;10591;52.532;13.348;2022-09-09T06:26:50;6.10;;;5.60;;
20861;SDS011;10591;52.532;13.348;2022-09-09T06:29:22;6.97;;;5.35;;
20861;SDS011;10591;52.532;13.348;2022-09-09T06:31:53;5.80;;;5.20;;
20861;SDS011;10591;52.532;13.348;2022-09-09T06:34:23;7.47;;;4.92;;
20861;SDS011;10591;52.532;13.348;2022-09-09T06:36:54;6.08;;;4.95;;
20861;SDS011;10591;52.532;13.348;2022-09-09T06:39:26;7.60;;;5.50;;
20861;SDS011;10591;52.532;13.348;2022-09-09T06:41:57;5.45;;;4.92;;
20861;SDS011;10591;52.532;13.348;2022-09-09T06:44:29;6.25;;;4.30;;
20861;SDS011;10591;52.532;13.348;2022-09-09T06:47:02;5.75;;;4.70;;
20861;SDS011;10591;52.532;13.348;2022-09-09T06:49:32;6.72;;;4.58;;
20861;SDS011;10591;52.532;13.348;2022-09-09T06:52:03;5.10;;;4.10;;
20861;SDS011;10591;52.532;13.348;2022-09-09T06:54:34;5.15;;;4.65;;
20861;SDS011;10591;52.532;13.348;2022-09-09T06:57:06;6.55;;;4.40;;
20861;SDS011;10591;52.532;13.348;2022-09-09T06:59:38;6.33;;;4.33;;
20861;SDS011;10591;52.532;13.348;2022-09-09T07:02:08;5.58;;;4.50;;
20861;SDS011;10591;52.532;13.348;2022-09-09T07:04:39;5.62;;;4.75;;
20861;SDS011;10591;52.532;13.348;2022-09-09T07:07:09;5.92;;;4.30;;
20861;SDS011;10591;52.532;13.348;2022-09-09T07:09:41;4.35;;;3.95;;
20861;SDS011;10591;52.532;13.348;2022-09-09T07:12:13;3.98;;;3.40;;
20861;SDS011;10591;52.532;13.348;2022-09-09T07:14:44;4.75;;;3.30;;
20861;SDS011;10591;52.532;13.348;2022-09-09T07:17:14;6.75;;;3.50;;
20861;SDS011;10591;52.532;13.348;2022-09-09T07:19:45;5.12;;;3.90;;
20861;SDS011;10591;52.532;13.348;2022-09-09T07:22:16;6.33;;;3.80;;
20861;SDS011;10591;52.532;13.348;2022-09-09T07:24:48;6.60;;;3.50;;
20861;SDS011;10591;52.532;13.348;2022-09-09T07:27:19;4.67;;;3.30;;
20861;SDS011;10591;52.532;13.348;2022-09-09T07:29:49;3.02;;;2.75;;
20861;SDS011;10591;52.532;13.348;2022-09-09T07:32:22;4.65;;;3.25;;
20861;SDS011;10591;52.532;13.348;2022-09-09T07:34:54;3.62;;;3.10;;
20861;SDS011;10591;52.532;13.348;2022-09-09T07:37:24;3.58;;;3.10;;
20861;SDS011;10591;52.532;13.348;2022-09-09T07:39:55;5.85;;;3.08;;
20861;SDS011;10591;52.532;13.348;2022-09-09T07:42:25;3.65;;;2.58;;
20861;SDS011;10591;52.532;13.348;2022-09-09T07:44:56;5.45;;;3.30;;
20861;SDS011;10591;52.532;13.348;2022-09-09T07:47:28;5.05;;;3.08;;
20861;SDS011;10591;52.532;13.348;2022-09-09T07:49:58;4.08;;;3.30;;
20861;SDS011;10591;52.532;13.348;2022-09-09T07:52:28;4.55;;;3.35;;
20861;SDS011;10591;52.532;13.348;2022-09-09T07:54:59;8.10;;;3.33;;
20861;SDS011;10591;52.532;13.348;2022-09-09T07:57:31;3.70;;;2.40;;
20861;SDS011;10591;52.532;13.348;2022-09-09T08:00:02;4.35;;;2.60;;
20861;SDS011;10591;52.532;13.348;2022-09-09T08:02:33;4.03;;;2.70;;
20861;SDS011;10591;52.532;13.348;2022-09-09T08:05:04;3.98;;;2.27;;
20861;SDS011;10591;52.532;13.348;2022-09-09T08:07:34;4.17;;;2.37;;
20861;SDS011;10591;52.532;13.348;2022-09-09T08:10:05;3.27;;;2.30;;
20861;SDS011;10591;52.532;13.348;2022-09-09T08:12:36;2.95;;;2.10;;
20861;SDS011;10591;52.532;13.348;2022-09-09T08:15:12;3.90;;;2.40;;
20861;SDS011;10591;52.532;13.348;2022-09-09T08:17:42;3.80;;;2.20;;
20861;SDS011;10591;52.532;13.348;2022-09-09T08:20:13;5.35;;;2.40;;
20861;SDS011;10591;52.532;13.348;2022-09-09T08:22:43;4.12;;;2.20;;
20861;SDS011;10591;52.532;13.348;2022-09-09T08:25:14;4.10;;;2.37;;
20861;SDS011;10591;52.532;13.348;2022-09-09T08:27:44;3.45;;;2.33;;
20861;SDS011;10591;52.532;13.348;2022-09-09T08:30:14;2.75;;;2.10;;
20861;SDS011;10591;52.532;13.348;2022-09-09T08:32:45;3.77;;;2.35;;
20861;SDS011;10591;52.532;13.348;2022-09-09T08:35:17;3.30;;;2.47;;
20861;SDS011;10591;52.532;13.348;2022-09-09T08:37:52;3.37;;;2.62;;
20861;SDS011;10591;52.532;13.348;2022-09-09T08:40:22;4.50;;;2.15;;
20861;SDS011;10591;52.532;13.348;2022-09-09T08:42:56;5.40;;;2.22;;
20861;SDS011;10591;52.532;13.348;2022-09-09T08:45:33;2.90;;;2.00;;
20861;SDS011;10591;52.532;13.348;2022-09-09T08:48:14;2.30;;;2.02;;
20861;SDS011;10591;52.532;13.348;2022-09-09T08:50:46;4.45;;;2.25;;
20861;SDS011;10591;52.532;13.348;2022-09-09T08:53:26;2.95;;;2.00;;
20861;SDS011;10591;52.532;13.348;2022-09-09T08:58:31;2.98;;;2.05;;
20861;SDS011;10591;52.532;13.348;2022-09-09T09:06:44;5.35;;;4.28;;
20861;SDS011;10591;52.532;13.348;2022-09-09T09:12:23;3.10;;;2.30;;
20861;SDS011;10591;52.532;13.348;2022-09-09T09:14:55;2.92;;;2.25;;
20861;SDS011;10591;52.532;13.348;2022-09-09T09:17:28;2.87;;;2.33;;
20861;SDS011;10591;52.532;13.348;2022-09-09T09:20:01;4.95;;;2.50;;
20861;SDS011;10591;52.532;13.348;2022-09-09T09:22:38;3.02;;;2.10;;
20861;SDS011;10591;52.532;13.348;2022-09-09T09:25:18;4.17;;;2.17;;
20861;SDS011;10591;52.532;13.348;2022-09-09T09:27:58;3.72;;;2.30;;
20861;SDS011;10591;52.532;13.348;2022-09-09T09:30:32;3.70;;;2.55;;
20861;SDS011;10591;52.532;13.348;2022-09-09T09:35:53;3.90;;;2.10;;
20861;SDS011;10591;52.532;13.348;2022-09-09T09:38:23;4.37;;;2.20;;
20861;SDS011;10591;52.532;13.348;2022-09-09T09:40:58;3.67;;;2.22;;
20861;SDS011;10591;52.532;13.348;2022-09-09T09:43:33;3.17;;;1.98;;
20861;SDS011;10591;52.532;13.348;2022-09-09T09:46:05;2.20;;;2.00;;
20861;SDS011;10591;52.532;13.348;2022-09-09T09:48:40;3.42;;;1.80;;
20861;SDS011;10591;52.532;13.348;2022-09-09T09:51:11;2.33;;;2.02;;
20861;SDS011;10591;52.532;13.348;2022-09-09T09:53:44;3.92;;;1.98;;
20861;SDS011;10591;52.532;13.348;2022-09-09T09:56:15;4.15;;;2.20;;
20861;SDS011;10591;52.532;13.348;2022-09-09T10:01:23;4.53;;;1.72;;
20861;SDS011;10591;52.532;13.348;2022-09-09T10:04:02;3.85;;;2.65;;
20861;SDS011;10591;52.532;13.348;2022-09-09T10:06:48;3.22;;;2.10;;
20861;SDS011;10591;52.532;13.348;2022-09-09T10:09:23;3.52;;;2.00;;
20861;SDS011;10591;52.532;13.348;2022-09-09T10:12:07;3.15;;;1.98;;
20861;SDS011;10591;52.532;13.348;2022-09-09T10:14:52;2.95;;;1.75;;
20861;SDS011;10591;52.532;13.348;2022-09-09T10:17:36;3.80;;;1.80;;
20861;SDS011;10591;52.532;13.348;2022-09-09T10:23:14;4.53;;;2.22;;
20861;SDS011;10591;52.532;13.348;2022-09-09T10:25:50;4.65;;;2.10;;
20861;SDS011;10591;52.532;13.348;2022-09-09T10:31:20;3.10;;;1.62;;
20861;SDS011;10591;52.532;13.348;2022-09-09T10:33:58;4.45;;;1.98;;
20861;SDS011;10591;52.532;13.348;2022-09-09T10:36:28;2.00;;;1.80;;
20861;SDS011;10591;52.532;13.348;2022-09-09T10:39:00;3.10;;;1.98;;
20861;SDS011;10591;52.532;13.348;2022-09-09T10:41:37;2.87;;;1.90;;
20861;SDS011;10591;52.532;13.348;2022-09-09T10:47:03;2.05;;;1.80;;
20861;SDS011;10591;52.532;13.348;2022-09-09T10:49:40;4.03;;;1.80;;
20861;SDS011;10591;52.532;13.348;2022-09-09T10:52:32;3.30;;;1.80;;
20861;SDS011;10591;52.532;13.348;2022-09-09T10:55:20;2.80;;;1.98;;
20861;SDS011;10591;52.532;13.348;2022-09-09T10:57:56;2.55;;;1.70;;
20861;SDS011;10591;52.532;13.348;2022-09-09T11:00:49;4.92;;;1.90;;
20861;SDS011;10591;52.532;13.348;2022-09-09T11:03:11;2.25;;;1.40;;
20861;SDS011;10591;52.532;13.348;2022-09-09T11:05:45;2.35;;;1.52;;
20861;SDS011;10591;52.532;13.348;2022-09-09T11:08:22;3.25;;;1.60;;
20861;SDS011;10591;52.532;13.348;2022-09-09T11:11:06;3.80;;;1.70;;
20861;SDS011;10591;52.532;13.348;2022-09-09T11:21:53;3.08;;;1.90;;
20861;SDS011;10591;52.532;13.348;2022-09-09T11:24:31;2.75;;;1.82;;
20861;SDS011;10591;52.532;13.348;2022-09-09T11:27:11;2.70;;;1.50;;
20861;SDS011;10591;52.532;13.348;2022-09-09T11:38:40;3.83;;;1.95;;
20861;SDS011;10591;52.532;13.348;2022-09-09T11:41:16;4.05;;;1.60;;
20861;SDS011;10591;52.532;13.348;2022-09-09T11:43:50;2.83;;;1.62;;
20861;SDS011;10591;52.532;13.348;2022-09-09T11:46:31;1.92;;;1.57;;
20861;SDS011;10591;52.532;13.348;2022-09-09T11:49:05;3.02;;;2.00;;
20861;SDS011;10591;52.532;13.348;2022-09-09T11:51:37;3.02;;;2.35;;
20861;SDS011;10591;52.532;13.348;2022-09-09T11:54:28;2.33;;;1.50;;
20861;SDS011;10591;52.532;13.348;2022-09-09T11:57:03;1.40;;;1.07;;
20861;SDS011;10591;52.532;13.348;2022-09-09T11:59:34;1.60;;;0.98;;
20861;SDS011;10591;52.532;13.348;2022-09-09T12:05:18;2.60;;;1.10;;
20861;SDS011;10591;52.532;13.348;2022-09-09T12:10:20;2.30;;;1.32;;
20861;SDS011;10591;52.532;13.348;2022-09-09T12:13:17;2.10;;;1.40;;
20861;SDS011;10591;52.532;13.348;2022-09-09T12:15:52;1.72;;;1.07;;
20861;SDS011;10591;52.532;13.348;2022-09-09T12:18:47;2.37;;;1.30;;
20861;SDS011;10591;52.532;13.348;2022-09-09T12:21:07;2.00;;;1.10;;
20861;SDS011;10591;52.532;13.348;2022-09-09T12:32:04;2.87;;;1.40;;
20861;SDS011;10591;52.532;13.348;2022-09-09T12:34:41;2.60;;;1.20;;
20861;SDS011;10591;52.532;13.348;2022-09-09T12:37:41;2.75;;;1.45;;
20861;SDS011;10591;52.532;13.348;2022-09-09T12:40:21;3.27;;;1.35;;
20861;SDS011;10591;52.532;13.348;2022-09-09T12:42:56;1.60;;;1.20;;
20861;SDS011;10591;52.532;13.348;2022-09-09T12:45:30;3.15;;;1.55;;
20861;SDS011;10591;52.532;13.348;2022-09-09T12:48:08;2.80;;;1.65;;
20861;SDS011;10591;52.532;13.348;2022-09-09T12:50:44;2.12;;;1.30;;
20861;SDS011;10591;52.532;13.348;2022-09-09T12:53:21;2.45;;;1.40;;
20861;SDS011;10591;52.532;13.348;2022-09-09T12:55:59;1.92;;;1.22;;
20861;SDS011;10591;52.532;13.348;2022-09-09T12:58:39;3.15;;;1.27;;
20861;SDS011;10591;52.532;13.348;2022-09-09T13:01:20;2.75;;;1.35;;
20861;SDS011;10591;52.532;13.348;2022-09-09T13:03:57;3.12;;;1.35;;
20861;SDS011;10591;52.532;13.348;2022-09-09T13:06:29;2.42;;;1.57;;
20861;SDS011;10591;52.532;13.348;2022-09-09T13:09:01;3.37;;;1.30;;
20861;SDS011;10591;52.532;13.348;2022-09-09T13:11:44;2.25;;;1.30;;
20861;SDS011;10591;52.532;13.348;2022-09-09T13:14:19;2.50;;;1.27;;
20861;SDS011;10591;52.532;13.348;2022-09-09T13:16:55;3.98;;;1.50;;
20861;SDS011;10591;52.532;13.348;2022-09-09T13:19:29;2.85;;;1.55;;
20861;SDS011;10591;52.532;13.348;2022-09-09T13:22:21;3.52;;;1.47;;
20861;SDS011;10591;52.532;13.348;2022-09-09T13:25:05;3.85;;;1.50;;
20861;SDS011;10591;52.532;13.348;2022-09-09T13:27:39;2.22;;;1.50;;
20861;SDS011;10591;52.532;13.348;2022-09-09T13:30:22;1.55;;;1.42;;
20861;SDS011;10591;52.532;13.348;2022-09-09T13:38:22;2.67;;;1.50;;
20861;SDS011;10591;52.532;13.348;2022-09-09T13:40:59;1.70;;;1.42;;
20861;SDS011;10591;52.532;13.348;2022-09-09T13:43:42;4.62;;;1.82;;
20861;SDS011;10591;52.532;13.348;2022-09-09T13:49:16;3.02;;;1.30;;
20861;SDS011;10591;52.532;13.348;2022-09-09T13:51:41;2.45;;;1.22;;
20861;SDS011;10591;52.532;13.348;2022-09-09T13:54:15;2.20;;;1.50;;
20861;SDS011;10591;52.532;13.348;2022-09-09T13:56:47;1.82;;;1.45;;
20861;SDS011;10591;52.532;13.348;2022-09-09T13:59:19;2.20;;;1.22;;
20861;SDS011;10591;52.532;13.348;2022-09-09T14:01:50;3.30;;;1.80;;
20861;SDS011;10591;52.532;13.348;2022-09-09T14:04:21;3.65;;;1.77;;
20861;SDS011;10591;52.532;13.348;2022-09-09T14:06:51;2.58;;;1.40;;
20861;SDS011;10591;52.532;13.348;2022-09-09T14:09:21;1.72;;;1.42;;
20861;SDS011;10591;52.532;13.348;2022-09-09T14:11:52;4.37;;;1.85;;
20861;SDS011;10591;52.532;13.348;2022-09-09T14:14:23;3.55;;;1.80;;
20861;SDS011;10591;52.532;13.348;2022-09-09T14:16:54;3.92;;;1.30;;
20861;SDS011;10591;52.532;13.348;2022-09-09T14:19:24;2.92;;;1.60;;
20861;SDS011;10591;52.532;13.348;2022-09-09T14:21:55;2.67;;;1.52;;
20861;SDS011;10591;52.532;13.348;2022-09-09T14:24:25;2.40;;;1.12;;
20861;SDS011;10591;52.532;13.348;2022-09-09T14:26:56;2.55;;;1.40;;
20861;SDS011;10591;52.532;13.348;2022-09-09T14:29:27;3.72;;;1.40;;
20861;SDS011;10591;52.532;13.348;2022-09-09T14:31:57;3.40;;;1.25;;
20861;SDS011;10591;52.532;13.348;2022-09-09T14:34:29;3.00;;;1.45;;
20861;SDS011;10591;52.532;13.348;2022-09-09T14:37:01;2.17;;;1.40;;
20861;SDS011;10591;52.532;13.348;2022-09-09T14:39:32;5.83;;;1.80;;
20861;SDS011;10591;52.532;13.348;2022-09-09T14:42:02;3.15;;;1.50;;
20861;SDS011;10591;52.532;13.348;2022-09-09T14:44:34;2.80;;;1.30;;
20861;SDS011;10591;52.532;13.348;2022-09-09T14:47:05;3.12;;;1.70;;
20861;SDS011;10591;52.532;13.348;2022-09-09T14:49:37;2.90;;;1.50;;
20861;SDS011;10591;52.532;13.348;2022-09-09T14:52:09;4.30;;;1.75;;
20861;SDS011;10591;52.532;13.348;2022-09-09T14:54:40;3.85;;;1.80;;
20861;SDS011;10591;52.532;13.348;2022-09-09T14:57:10;2.35;;;1.40;;
20861;SDS011;10591;52.532;13.348;2022-09-09T14:59:41;4.08;;;1.77;;
20861;SDS011;10591;52.532;13.348;2022-09-09T15:02:12;1.70;;;1.42;;
20861;SDS011;10591;52.532;13.348;2022-09-09T15:04:43;2.58;;;1.40;;
20861;SDS011;10591;52.532;13.348;2022-09-09T15:07:14;2.05;;;1.27;;
20861;SDS011;10591;52.532;13.348;2022-09-09T15:09:47;2.02;;;1.57;;
20861;SDS011;10591;52.532;13.348;2022-09-09T15:12:17;2.95;;;1.57;;
20861;SDS011;10591;52.532;13.348;2022-09-09T15:14:49;2.65;;;1.52;;
20861;SDS011;10591;52.532;13.348;2022-09-09T15:17:20;3.08;;;1.50;;
20861;SDS011;10591;52.532;13.348;2022-09-09T15:19:53;2.22;;;1.52;;
20861;SDS011;10591;52.532;13.348;2022-09-09T15:22:24;3.00;;;1.92;;
20861;SDS011;10591;52.532;13.348;2022-09-09T15:24:54;2.58;;;1.37;;
20861;SDS011;10591;52.532;13.348;2022-09-09T15:27:26;2.22;;;1.65;;
20861;SDS011;10591;52.532;13.348;2022-09-09T15:29:57;2.08;;;1.30;;
20861;SDS011;10591;52.532;13.348;2022-09-09T15:32:29;3.67;;;2.00;;
20861;SDS011;10591;52.532;13.348;2022-09-09T15:35:02;2.50;;;1.60;;
20861;SDS011;10591;52.532;13.348;2022-09-09T15:37:32;2.80;;;1.72;;
20861;SDS011;10591;52.532;13.348;2022-09-09T15:40:02;1.92;;;1.55;;
20861;SDS011;10591;52.532;13.348;2022-09-09T15:42:33;2.05;;;1.85;;
20861;SDS011;10591;52.532;13.348;2022-09-09T15:45:04;1.47;;;1.30;;
20861;SDS011;10591;52.532;13.348;2022-09-09T15:47:35;2.70;;;1.50;;
20861;SDS011;10591;52.532;13.348;2022-09-09T15:50:06;2.50;;;1.70;;
20861;SDS011;10591;52.532;13.348;2022-09-09T15:52:36;4.85;;;2.90;;
20861;SDS011;10591;52.532;13.348;2022-09-09T15:55:07;14.00;;;12.68;;
20861;SDS011;10591;52.532;13.348;2022-09-09T15:57:38;5.30;;;3.30;;
20861;SDS011;10591;52.532;13.348;2022-09-09T16:00:09;3.62;;;2.50;;
20861;SDS011;10591;52.532;13.348;2022-09-09T16:02:41;4.28;;;3.17;;
20861;SDS011;10591;52.532;13.348;2022-09-09T16:05:12;6.58;;;4.42;;
20861;SDS011;10591;52.532;13.348;2022-09-09T16:07:42;3.37;;;2.60;;
20861;SDS011;10591;52.532;13.348;2022-09-09T16:10:13;3.22;;;1.98;;
20861;SDS011;10591;52.532;13.348;2022-09-09T16:12:44;2.85;;;2.20;;
20861;SDS011;10591;52.532;13.348;2022-09-09T16:15:15;2.83;;;2.52;;
20861;SDS011;10591;52.532;13.348;2022-09-09T16:17:46;2.62;;;2.10;;
20861;SDS011;10591;52.532;13.348;2022-09-09T16:20:16;2.30;;;1.80;;
20861;SDS011;10591;52.532;13.348;2022-09-09T16:22:47;2.98;;;1.80;;
20861;SDS011;10591;52.532;13.348;2022-09-09T16:25:18;2.60;;;1.90;;
20861;SDS011;10591;52.532;13.348;2022-09-09T16:27:49;2.17;;;1.60;;
20861;SDS011;10591;52.532;13.348;2022-09-09T16:30:19;2.62;;;1.65;;
20861;SDS011;10591;52.532;13.348;2022-09-09T16:32:50;2.22;;;1.70;;
20861;SDS011;10591;52.532;13.348;2022-09-09T16:35:22;3.25;;;2.00;;
20861;SDS011;10591;52.532;13.348;2022-09-09T16:37:52;2.55;;;1.90;;
20861;SDS011;10591;52.532;13.348;2022-09-09T16:40:22;2.45;;;1.75;;
20861;SDS011;10591;52.532;13.348;2022-09-09T16:42:53;3.90;;;1.80;;
20861;SDS011;10591;52.532;13.348;2022-09-09T16:45:23;3.12;;;1.72;;
20861;SDS011;10591;52.532;13.348;2022-09-09T16:47:54;4.70;;;2.87;;
20861;SDS011;10591;52.532;13.348;2022-09-09T16:50:24;3.27;;;2.22;;
20861;SDS011;10591;52.532;13.348;2022-09-09T16:52:55;3.62;;;2.05;;